AGUILA SCIP-SCEL
Flight info
| Callsign | AGUILA |
|---|---|
| Flight time | 5h 48m |
| Altitude | FL350 |
| Route | EROPI2J EROPI UT316 VTN UT101 TBN DCT |
| Aircraft | B763/H-S/N |
Departure
| Time | 2026-04-20 13:55 |
|---|---|
| Airport | Mataveri International Airport (SCIP) |
Arrival
| Time | 2026-04-20 19:43 |
|---|---|
| Airport | Comodoro Arturo Merino Benítez International Airport (SCEL) |
| Time | Latitude | Longitude | Altitude | Speed | Heading |
|---|---|---|---|---|---|
| 2026-04-20 13:49 | -27.15990 | -109.42881 | 242 ft | 0 kts | 116° |
| 2026-04-20 13:51 | -27.15992 | -109.42877 | 242 ft | 2 kts | 124° |
| 2026-04-20 13:51 | -27.16023 | -109.42858 | 242 ft | 9 kts | 167° |
| 2026-04-20 13:52 | -27.16092 | -109.42874 | 242 ft | 12 kts | 205° |
| 2026-04-20 13:52 | -27.16125 | -109.42954 | 242 ft | 14 kts | 303° |
| 2026-04-20 13:52 | -27.16055 | -109.43077 | 242 ft | 23 kts | 299° |
| 2026-04-20 13:52 | -27.15980 | -109.43254 | 242 ft | 28 kts | 292° |
| 2026-04-20 13:53 | -27.15892 | -109.43478 | 242 ft | 32 kts | 296° |
| 2026-04-20 13:53 | -27.15806 | -109.43581 | 242 ft | 16 kts | 323° |
| 2026-04-20 13:53 | -27.15773 | -109.43643 | 242 ft | 8 kts | 229° |
| 2026-04-20 13:53 | -27.15815 | -109.43633 | 242 ft | 3 kts | 116° |
| 2026-04-20 13:54 | -27.15871 | -109.43505 | 242 ft | 47 kts | 116° |
| 2026-04-20 13:54 | -27.16117 | -109.42952 | 242 ft | 111 kts | 118° |
| 2026-04-20 13:54 | -27.16569 | -109.41976 | 243 ft | 169 kts | 117° |
| 2026-04-20 13:54 | -27.17156 | -109.40696 | 412 ft | 191 kts | 117° |
| 2026-04-20 13:55 | -27.17805 | -109.39281 | 837 ft | 224 kts | 117° |
| 2026-04-20 13:55 | -27.18560 | -109.37621 | 1300 ft | 254 kts | 117° |
| 2026-04-20 13:55 | -27.19378 | -109.35822 | 1740 ft | 254 kts | 117° |
| 2026-04-20 13:55 | -27.20147 | -109.34133 | 2155 ft | 235 kts | 117° |
| 2026-04-20 13:56 | -27.20879 | -109.32525 | 2593 ft | 230 kts | 117° |
| 2026-04-20 13:56 | -27.21619 | -109.30901 | 3052 ft | 238 kts | 116° |
| 2026-04-20 13:56 | -27.22389 | -109.29211 | 3514 ft | 247 kts | 116° |
| 2026-04-20 13:56 | -27.23173 | -109.27488 | 3965 ft | 248 kts | 116° |
| 2026-04-20 13:57 | -27.23924 | -109.25746 | 4407 ft | 248 kts | 111° |
| 2026-04-20 13:57 | -27.24423 | -109.23885 | 4863 ft | 250 kts | 102° |
| 2026-04-20 13:57 | -27.24747 | -109.21950 | 5317 ft | 255 kts | 98° |
| 2026-04-20 13:57 | -27.24987 | -109.19955 | 5775 ft | 259 kts | 97° |
| 2026-04-20 13:58 | -27.25180 | -109.17944 | 6224 ft | 259 kts | 96° |
| 2026-04-20 13:58 | -27.25350 | -109.15923 | 6675 ft | 260 kts | 96° |
| 2026-04-20 13:58 | -27.25508 | -109.13891 | 7126 ft | 262 kts | 96° |
| 2026-04-20 13:58 | -27.25661 | -109.11842 | 7578 ft | 265 kts | 96° |
| 2026-04-20 13:59 | -27.25813 | -109.09768 | 8029 ft | 269 kts | 96° |
| 2026-04-20 13:59 | -27.25969 | -109.07636 | 8491 ft | 281 kts | 97° |
| 2026-04-20 13:59 | -27.26135 | -109.05369 | 8964 ft | 302 kts | 97° |
| 2026-04-20 13:59 | -27.26315 | -109.02932 | 9439 ft | 325 kts | 97° |
| 2026-04-20 14:00 | -27.26506 | -109.00330 | 9906 ft | 341 kts | 96° |
| 2026-04-20 14:00 | -27.26698 | -108.97653 | 10358 ft | 344 kts | 96° |
| 2026-04-20 14:00 | -27.26883 | -108.95012 | 10795 ft | 334 kts | 96° |
| 2026-04-20 14:00 | -27.27061 | -108.92435 | 11237 ft | 329 kts | 96° |
| 2026-04-20 14:01 | -27.27239 | -108.89860 | 11689 ft | 333 kts | 96° |
| 2026-04-20 14:01 | -27.27421 | -108.87243 | 12143 ft | 339 kts | 96° |
| 2026-04-20 14:01 | -27.27607 | -108.84575 | 12600 ft | 347 kts | 96° |
| 2026-04-20 14:01 | -27.27797 | -108.81842 | 13056 ft | 354 kts | 96° |
| 2026-04-20 14:02 | -27.27989 | -108.79075 | 13507 ft | 357 kts | 96° |
| 2026-04-20 14:02 | -27.28181 | -108.76288 | 13958 ft | 359 kts | 96° |
| 2026-04-20 14:02 | -27.28373 | -108.73489 | 14407 ft | 359 kts | 95° |
| 2026-04-20 14:02 | -27.28500 | -108.71626 | 14706 ft | 359 kts | 95° |
| 2026-04-20 14:03 | -27.28691 | -108.68824 | 15155 ft | 360 kts | 95° |
| 2026-04-20 14:03 | -27.28881 | -108.66024 | 15604 ft | 360 kts | 95° |
| 2026-04-20 14:03 | -27.29136 | -108.62266 | 16207 ft | 364 kts | 95° |
| 2026-04-20 14:03 | -27.29265 | -108.60367 | 16509 ft | 368 kts | 95° |
| 2026-04-20 14:04 | -27.29460 | -108.57473 | 16964 ft | 374 kts | 96° |
| 2026-04-20 14:04 | -27.29658 | -108.54548 | 17417 ft | 378 kts | 96° |
| 2026-04-20 14:04 | -27.29922 | -108.50608 | 18018 ft | 380 kts | 96° |
| 2026-04-20 14:04 | -27.30120 | -108.47650 | 18467 ft | 380 kts | 96° |
| 2026-04-20 14:05 | -27.30251 | -108.45677 | 18767 ft | 379 kts | 96° |
| 2026-04-20 14:05 | -27.30446 | -108.42722 | 19215 ft | 380 kts | 96° |
| 2026-04-20 14:05 | -27.30643 | -108.39754 | 19665 ft | 382 kts | 95° |
| 2026-04-20 14:05 | -27.30841 | -108.36761 | 20116 ft | 385 kts | 95° |
| 2026-04-20 14:06 | -27.31048 | -108.33748 | 20567 ft | 389 kts | 96° |
| 2026-04-20 14:06 | -27.31466 | -108.30736 | 21021 ft | 392 kts | 102° |
| 2026-04-20 14:06 | -27.32105 | -108.27745 | 21476 ft | 396 kts | 105° |
| 2026-04-20 14:06 | -27.32877 | -108.24766 | 21930 ft | 399 kts | 108° |
| 2026-04-20 14:07 | -27.33730 | -108.21785 | 22384 ft | 403 kts | 109° |
| 2026-04-20 14:07 | -27.34632 | -108.18793 | 22835 ft | 405 kts | 109° |
| 2026-04-20 14:07 | -27.35563 | -108.15787 | 23287 ft | 408 kts | 110° |
| 2026-04-20 14:07 | -27.36510 | -108.12775 | 23737 ft | 410 kts | 110° |
| 2026-04-20 14:08 | -27.37466 | -108.09749 | 24187 ft | 413 kts | 110° |
| 2026-04-20 14:08 | -27.38433 | -108.06692 | 24639 ft | 416 kts | 110° |
| 2026-04-20 14:08 | -27.39404 | -108.03621 | 25090 ft | 418 kts | 110° |
| 2026-04-20 14:08 | -27.40376 | -108.00538 | 25540 ft | 421 kts | 110° |
| 2026-04-20 14:09 | -27.41355 | -107.97424 | 25992 ft | 422 kts | 110° |
| 2026-04-20 14:09 | -27.42335 | -107.94303 | 26442 ft | 424 kts | 110° |
| 2026-04-20 14:09 | -27.43311 | -107.91181 | 26891 ft | 424 kts | 110° |
| 2026-04-20 14:09 | -27.44289 | -107.88048 | 27340 ft | 424 kts | 110° |
| 2026-04-20 14:10 | -27.45264 | -107.84918 | 27788 ft | 424 kts | 110° |
| 2026-04-20 14:10 | -27.46235 | -107.81792 | 28236 ft | 423 kts | 110° |
| 2026-04-20 14:10 | -27.47201 | -107.78680 | 28683 ft | 421 kts | 110° |
| 2026-04-20 14:10 | -27.48163 | -107.75572 | 29130 ft | 419 kts | 110° |
| 2026-04-20 14:11 | -27.49116 | -107.72491 | 29575 ft | 416 kts | 110° |
| 2026-04-20 14:11 | -27.50061 | -107.69431 | 30019 ft | 412 kts | 110° |
| 2026-04-20 14:11 | -27.50483 | -107.68067 | 3500 ft | 259 kts | 110° |
| 2026-04-20 14:11 | -27.51077 | -107.66202 | 3965 ft | 299 kts | 110° |
| 2026-04-20 14:12 | -27.51799 | -107.63881 | 4451 ft | 326 kts | 109° |
| 2026-04-20 14:12 | -27.52543 | -107.61464 | 4896 ft | 319 kts | 109° |
| 2026-04-20 14:12 | -27.53242 | -107.59178 | 5325 ft | 303 kts | 109° |
| 2026-04-20 14:12 | -27.53925 | -107.56947 | 5765 ft | 302 kts | 108° |
| 2026-04-20 14:13 | -27.54616 | -107.54680 | 6227 ft | 313 kts | 107° |
| 2026-04-20 14:13 | -27.55335 | -107.52320 | 6691 ft | 323 kts | 107° |
| 2026-04-20 14:13 | -27.56064 | -107.49928 | 7143 ft | 323 kts | 107° |
| 2026-04-20 14:13 | -27.56793 | -107.47543 | 7592 ft | 320 kts | 106° |
| 2026-04-20 14:14 | -27.57516 | -107.45181 | 8044 ft | 319 kts | 106° |
| 2026-04-20 14:14 | -27.58001 | -107.43371 | 35476 ft | 500 kts | 105° |
| 2026-04-20 14:14 | -27.58998 | -107.39720 | 35844 ft | 479 kts | 105° |
| 2026-04-20 14:14 | -27.60040 | -107.36186 | 35730 ft | 473 kts | 107° |
| 2026-04-20 14:15 | -27.61121 | -107.32702 | 35566 ft | 470 kts | 108° |
| 2026-04-20 14:15 | -27.62229 | -107.29240 | 35394 ft | 469 kts | 109° |
| 2026-04-20 14:15 | -27.63346 | -107.25794 | 35250 ft | 468 kts | 110° |
| 2026-04-20 14:15 | -27.64442 | -107.22345 | 35169 ft | 467 kts | 110° |
| 2026-04-20 14:16 | -27.66577 | -107.15447 | 35140 ft | 465 kts | 111° |
| 2026-04-20 14:16 | -27.68679 | -107.08546 | 35138 ft | 467 kts | 111° |
| 2026-04-20 14:17 | -27.70785 | -107.01589 | 35138 ft | 471 kts | 111° |
| 2026-04-20 14:17 | -27.72911 | -106.94551 | 35139 ft | 476 kts | 110° |
| 2026-04-20 14:18 | -27.75050 | -106.87445 | 35142 ft | 481 kts | 110° |
| 2026-04-20 14:18 | -27.77209 | -106.80251 | 35142 ft | 486 kts | 110° |
| 2026-04-20 14:19 | -27.79378 | -106.73002 | 35141 ft | 490 kts | 110° |
| 2026-04-20 14:19 | -27.81559 | -106.65697 | 35141 ft | 492 kts | 110° |
| 2026-04-20 14:20 | -27.83743 | -106.58364 | 35141 ft | 493 kts | 110° |
| 2026-04-20 14:20 | -27.85927 | -106.51012 | 35141 ft | 494 kts | 110° |
| 2026-04-20 14:21 | -27.88113 | -106.43642 | 35141 ft | 495 kts | 110° |
| 2026-04-20 14:21 | -27.90294 | -106.36269 | 35141 ft | 495 kts | 110° |
| 2026-04-20 14:22 | -27.92475 | -106.28879 | 35141 ft | 496 kts | 110° |
| 2026-04-20 14:22 | -27.94651 | -106.21489 | 35141 ft | 496 kts | 110° |
| 2026-04-20 14:23 | -27.96825 | -106.14091 | 35141 ft | 496 kts | 110° |
| 2026-04-20 14:23 | -27.98995 | -106.06688 | 35141 ft | 496 kts | 110° |
| 2026-04-20 14:24 | -28.01161 | -105.99281 | 35141 ft | 496 kts | 110° |
| 2026-04-20 14:24 | -28.03321 | -105.91872 | 35141 ft | 496 kts | 110° |
| 2026-04-20 14:25 | -28.05477 | -105.84455 | 35141 ft | 496 kts | 110° |
| 2026-04-20 14:25 | -28.07600 | -105.77026 | 35140 ft | 496 kts | 109° |
| 2026-04-20 14:26 | -28.09689 | -105.69580 | 35140 ft | 496 kts | 109° |
| 2026-04-20 14:26 | -28.11761 | -105.62122 | 35140 ft | 496 kts | 109° |
| 2026-04-20 14:27 | -28.13822 | -105.54664 | 35139 ft | 496 kts | 109° |
| 2026-04-20 14:27 | -28.15877 | -105.47200 | 35138 ft | 496 kts | 109° |
| 2026-04-20 14:28 | -28.17927 | -105.39733 | 35136 ft | 496 kts | 109° |
| 2026-04-20 14:28 | -28.19974 | -105.32262 | 35136 ft | 496 kts | 109° |
| 2026-04-20 14:29 | -28.22013 | -105.24789 | 35135 ft | 497 kts | 110° |
| 2026-04-20 14:29 | -28.24048 | -105.17301 | 35135 ft | 496 kts | 111° |
| 2026-04-20 14:30 | -28.26078 | -105.09833 | 35133 ft | 496 kts | 111° |
| 2026-04-20 14:30 | -28.28104 | -105.02365 | 35134 ft | 495 kts | 111° |
| 2026-04-20 14:31 | -28.30125 | -104.94905 | 35125 ft | 495 kts | 111° |
| 2026-04-20 14:31 | -28.32139 | -104.87451 | 35119 ft | 495 kts | 111° |
| 2026-04-20 14:32 | -28.34148 | -104.79996 | 35118 ft | 494 kts | 111° |
| 2026-04-20 14:32 | -28.36154 | -104.72536 | 35120 ft | 494 kts | 111° |
| 2026-04-20 14:33 | -28.38154 | -104.65077 | 35122 ft | 494 kts | 111° |
| 2026-04-20 14:33 | -28.40151 | -104.57614 | 35120 ft | 494 kts | 111° |
| 2026-04-20 14:34 | -28.42143 | -104.50150 | 35120 ft | 494 kts | 111° |
| 2026-04-20 14:34 | -28.44129 | -104.42687 | 35122 ft | 494 kts | 111° |
| 2026-04-20 14:35 | -28.46113 | -104.35215 | 35120 ft | 494 kts | 111° |
| 2026-04-20 14:35 | -28.48093 | -104.27743 | 35122 ft | 494 kts | 110° |
| 2026-04-20 14:36 | -28.50066 | -104.20272 | 35128 ft | 494 kts | 110° |
| 2026-04-20 14:36 | -28.52037 | -104.12795 | 35125 ft | 494 kts | 110° |
| 2026-04-20 14:37 | -28.54004 | -104.05316 | 35124 ft | 494 kts | 110° |
| 2026-04-20 14:37 | -28.55967 | -103.97831 | 35130 ft | 494 kts | 110° |
| 2026-04-20 14:38 | -28.57923 | -103.90353 | 35130 ft | 494 kts | 110° |
| 2026-04-20 14:38 | -28.59878 | -103.82862 | 35130 ft | 494 kts | 110° |
| 2026-04-20 14:39 | -28.61827 | -103.75376 | 35132 ft | 494 kts | 110° |
| 2026-04-20 14:39 | -28.63773 | -103.67881 | 35131 ft | 494 kts | 110° |
| 2026-04-20 14:40 | -28.65714 | -103.60389 | 35132 ft | 494 kts | 110° |
| 2026-04-20 14:40 | -28.67652 | -103.52890 | 35139 ft | 494 kts | 110° |
| 2026-04-20 14:41 | -28.69584 | -103.45392 | 35138 ft | 494 kts | 110° |
| 2026-04-20 14:41 | -28.71512 | -103.37893 | 35136 ft | 494 kts | 110° |
| 2026-04-20 14:42 | -28.73432 | -103.30390 | 35139 ft | 493 kts | 111° |
| 2026-04-20 14:42 | -28.75345 | -103.22908 | 35139 ft | 492 kts | 111° |
| 2026-04-20 14:43 | -28.77254 | -103.15426 | 35135 ft | 491 kts | 111° |
| 2026-04-20 14:43 | -28.79157 | -103.07951 | 35139 ft | 491 kts | 111° |
| 2026-04-20 14:44 | -28.81054 | -103.00482 | 35143 ft | 491 kts | 111° |
| 2026-04-20 14:44 | -28.82948 | -102.93005 | 35136 ft | 491 kts | 111° |
| 2026-04-20 14:45 | -28.84836 | -102.85533 | 35156 ft | 490 kts | 111° |
| 2026-04-20 14:45 | -28.86717 | -102.78065 | 35163 ft | 490 kts | 111° |
| 2026-04-20 14:46 | -28.88597 | -102.70588 | 35158 ft | 490 kts | 111° |
| 2026-04-20 14:46 | -28.90471 | -102.63115 | 35162 ft | 490 kts | 111° |
| 2026-04-20 14:47 | -28.92340 | -102.55636 | 35164 ft | 490 kts | 111° |
| 2026-04-20 14:48 | -28.95133 | -102.44426 | 35161 ft | 489 kts | 111° |
| 2026-04-20 14:48 | -28.96990 | -102.36953 | 35161 ft | 489 kts | 111° |
| 2026-04-20 14:49 | -28.98839 | -102.29485 | 35161 ft | 489 kts | 111° |
| 2026-04-20 14:49 | -29.00686 | -102.22014 | 35155 ft | 489 kts | 111° |
| 2026-04-20 14:50 | -29.02529 | -102.14543 | 35171 ft | 489 kts | 111° |
| 2026-04-20 14:50 | -29.04368 | -102.07064 | 35174 ft | 489 kts | 111° |
| 2026-04-20 14:51 | -29.06200 | -101.99591 | 35172 ft | 489 kts | 111° |
| 2026-04-20 14:51 | -29.08031 | -101.92104 | 35168 ft | 489 kts | 111° |
| 2026-04-20 14:52 | -29.09856 | -101.84621 | 35170 ft | 489 kts | 111° |
| 2026-04-20 14:52 | -29.11677 | -101.77131 | 35176 ft | 489 kts | 111° |
| 2026-04-20 14:53 | -29.13493 | -101.69645 | 35172 ft | 489 kts | 111° |
| 2026-04-20 14:53 | -29.15308 | -101.62150 | 35174 ft | 489 kts | 111° |
| 2026-04-20 14:54 | -29.17118 | -101.54653 | 35168 ft | 489 kts | 111° |
| 2026-04-20 14:54 | -29.18925 | -101.47154 | 35177 ft | 489 kts | 111° |
| 2026-04-20 14:55 | -29.20725 | -101.39652 | 35185 ft | 489 kts | 111° |
| 2026-04-20 14:55 | -29.22519 | -101.32152 | 35182 ft | 489 kts | 111° |
| 2026-04-20 14:56 | -29.24312 | -101.24633 | 35183 ft | 489 kts | 111° |
| 2026-04-20 14:56 | -29.26101 | -101.17119 | 35180 ft | 490 kts | 111° |
| 2026-04-20 14:57 | -29.27887 | -101.09603 | 35183 ft | 490 kts | 111° |
| 2026-04-20 14:57 | -29.29671 | -101.02076 | 35181 ft | 490 kts | 111° |
| 2026-04-20 14:58 | -29.31451 | -100.94547 | 35178 ft | 490 kts | 111° |
| 2026-04-20 14:58 | -29.33223 | -100.87019 | 35180 ft | 490 kts | 111° |
| 2026-04-20 14:59 | -29.34991 | -100.79489 | 35180 ft | 490 kts | 110° |
| 2026-04-20 14:59 | -29.36756 | -100.71951 | 35186 ft | 490 kts | 110° |
| 2026-04-20 15:00 | -29.38519 | -100.64409 | 35180 ft | 490 kts | 110° |
| 2026-04-20 15:00 | -29.39982 | -100.58129 | 35187 ft | 490 kts | 110° |
| 2026-04-20 15:01 | -29.41735 | -100.50583 | 35186 ft | 490 kts | 110° |
| 2026-04-20 15:01 | -29.43481 | -100.43041 | 35188 ft | 490 kts | 110° |
| 2026-04-20 15:02 | -29.45224 | -100.35496 | 35191 ft | 489 kts | 110° |
| 2026-04-20 15:02 | -29.46961 | -100.27948 | 35192 ft | 489 kts | 110° |
| 2026-04-20 15:03 | -29.48694 | -100.20395 | 35182 ft | 490 kts | 110° |
| 2026-04-20 15:03 | -29.50422 | -100.12835 | 35180 ft | 490 kts | 110° |
| 2026-04-20 15:04 | -29.52145 | -100.05272 | 35186 ft | 490 kts | 110° |
| 2026-04-20 15:04 | -29.53882 | -99.97718 | 35188 ft | 489 kts | 111° |
| 2026-04-20 15:05 | -29.55636 | -99.90191 | 35187 ft | 488 kts | 111° |
| 2026-04-20 15:05 | -29.57394 | -99.82678 | 35188 ft | 487 kts | 111° |
| 2026-04-20 15:06 | -29.59148 | -99.75172 | 35190 ft | 486 kts | 111° |
| 2026-04-20 15:06 | -29.60897 | -99.67669 | 35190 ft | 486 kts | 111° |
| 2026-04-20 15:07 | -29.62640 | -99.60166 | 35190 ft | 486 kts | 111° |
| 2026-04-20 15:07 | -29.64377 | -99.52660 | 35193 ft | 486 kts | 111° |
| 2026-04-20 15:08 | -29.66108 | -99.45157 | 35192 ft | 486 kts | 111° |
| 2026-04-20 15:08 | -29.67836 | -99.37643 | 35192 ft | 486 kts | 111° |
| 2026-04-20 15:09 | -29.69558 | -99.30132 | 35196 ft | 486 kts | 111° |
| 2026-04-20 15:09 | -29.71275 | -99.22617 | 35197 ft | 486 kts | 111° |
| 2026-04-20 15:10 | -29.72987 | -99.15099 | 35199 ft | 486 kts | 111° |
| 2026-04-20 15:10 | -29.74696 | -99.07574 | 35200 ft | 486 kts | 111° |
| 2026-04-20 15:11 | -29.76400 | -99.00049 | 35200 ft | 486 kts | 111° |
| 2026-04-20 15:11 | -29.78099 | -98.92524 | 35200 ft | 486 kts | 111° |
| 2026-04-20 15:12 | -29.79796 | -98.84990 | 35200 ft | 486 kts | 111° |
| 2026-04-20 15:12 | -29.81487 | -98.77457 | 35200 ft | 486 kts | 111° |
| 2026-04-20 15:13 | -29.83174 | -98.69917 | 35200 ft | 486 kts | 111° |
| 2026-04-20 15:13 | -29.84857 | -98.62376 | 35200 ft | 487 kts | 110° |
| 2026-04-20 15:14 | -29.86537 | -98.54827 | 35200 ft | 487 kts | 110° |
| 2026-04-20 15:14 | -29.88213 | -98.47277 | 35200 ft | 487 kts | 110° |
| 2026-04-20 15:15 | -29.89884 | -98.39722 | 35200 ft | 487 kts | 110° |
| 2026-04-20 15:15 | -29.91549 | -98.32172 | 35200 ft | 487 kts | 110° |
| 2026-04-20 15:16 | -29.93212 | -98.24612 | 35200 ft | 487 kts | 110° |
| 2026-04-20 15:16 | -29.94872 | -98.17045 | 35201 ft | 487 kts | 110° |
| 2026-04-20 15:17 | -29.96526 | -98.09482 | 35201 ft | 487 kts | 110° |
| 2026-04-20 15:17 | -29.98177 | -98.01910 | 35201 ft | 487 kts | 110° |
| 2026-04-20 15:18 | -29.99823 | -97.94336 | 35201 ft | 487 kts | 110° |
| 2026-04-20 15:18 | -30.01466 | -97.86756 | 35201 ft | 487 kts | 110° |
| 2026-04-20 15:19 | -30.03103 | -97.79181 | 35201 ft | 487 kts | 110° |
| 2026-04-20 15:19 | -30.04737 | -97.71595 | 35201 ft | 487 kts | 110° |
| 2026-04-20 15:20 | -30.06368 | -97.64003 | 35201 ft | 487 kts | 110° |
| 2026-04-20 15:20 | -30.08001 | -97.56405 | 35199 ft | 489 kts | 108° |
| 2026-04-20 15:21 | -30.09642 | -97.48754 | 35200 ft | 493 kts | 108° |
| 2026-04-20 15:21 | -30.11285 | -97.41045 | 35199 ft | 496 kts | 107° |
| 2026-04-20 15:22 | -30.12929 | -97.33293 | 35199 ft | 498 kts | 107° |
| 2026-04-20 15:22 | -30.14572 | -97.25519 | 35198 ft | 499 kts | 107° |
| 2026-04-20 15:23 | -30.16212 | -97.17730 | 35198 ft | 500 kts | 107° |
| 2026-04-20 15:23 | -30.17852 | -97.09922 | 35198 ft | 500 kts | 107° |
| 2026-04-20 15:24 | -30.19487 | -97.02108 | 35198 ft | 500 kts | 107° |
| 2026-04-20 15:24 | -30.21118 | -96.94295 | 35199 ft | 501 kts | 107° |
| 2026-04-20 15:25 | -30.22746 | -96.86473 | 35200 ft | 501 kts | 107° |
| 2026-04-20 15:25 | -30.24369 | -96.78648 | 35200 ft | 501 kts | 107° |
| 2026-04-20 15:26 | -30.25988 | -96.70817 | 35200 ft | 501 kts | 107° |
| 2026-04-20 15:26 | -30.27605 | -96.62977 | 35200 ft | 501 kts | 107° |
| 2026-04-20 15:27 | -30.29214 | -96.55145 | 35200 ft | 501 kts | 107° |
| 2026-04-20 15:27 | -30.30821 | -96.47301 | 35200 ft | 501 kts | 107° |
| 2026-04-20 15:28 | -30.32422 | -96.39461 | 35200 ft | 501 kts | 107° |
| 2026-04-20 15:28 | -30.34020 | -96.31611 | 35200 ft | 501 kts | 107° |
| 2026-04-20 15:29 | -30.35612 | -96.23762 | 35202 ft | 501 kts | 107° |
| 2026-04-20 15:29 | -30.37200 | -96.15909 | 35201 ft | 501 kts | 107° |
| 2026-04-20 15:30 | -30.38784 | -96.08053 | 35202 ft | 501 kts | 107° |
| 2026-04-20 15:30 | -30.40361 | -96.00200 | 35205 ft | 501 kts | 107° |
| 2026-04-20 15:31 | -30.41935 | -95.92338 | 35207 ft | 501 kts | 107° |
| 2026-04-20 15:31 | -30.43503 | -95.84480 | 35209 ft | 501 kts | 107° |
| 2026-04-20 15:32 | -30.45066 | -95.76621 | 35213 ft | 501 kts | 107° |
| 2026-04-20 15:32 | -30.46623 | -95.68765 | 35213 ft | 501 kts | 107° |
| 2026-04-20 15:33 | -30.48176 | -95.60901 | 35215 ft | 500 kts | 107° |
| 2026-04-20 15:33 | -30.49722 | -95.53043 | 35219 ft | 500 kts | 106° |
| 2026-04-20 15:34 | -30.51265 | -95.45177 | 35217 ft | 500 kts | 106° |
| 2026-04-20 15:34 | -30.52801 | -95.37318 | 35218 ft | 500 kts | 106° |
| 2026-04-20 15:35 | -30.54332 | -95.29455 | 35222 ft | 500 kts | 106° |
| 2026-04-20 15:35 | -30.55857 | -95.21591 | 35222 ft | 500 kts | 106° |
| 2026-04-20 15:36 | -30.57376 | -95.13728 | 35224 ft | 500 kts | 106° |
| 2026-04-20 15:36 | -30.58890 | -95.05859 | 35222 ft | 500 kts | 105° |
| 2026-04-20 15:37 | -30.60393 | -94.97961 | 35234 ft | 503 kts | 103° |
| 2026-04-20 15:37 | -30.61878 | -94.90007 | 35239 ft | 506 kts | 102° |
| 2026-04-20 15:38 | -30.63351 | -94.82008 | 35236 ft | 508 kts | 102° |
| 2026-04-20 15:38 | -30.64817 | -94.73977 | 35233 ft | 509 kts | 102° |
| 2026-04-20 15:39 | -30.66275 | -94.65925 | 35233 ft | 510 kts | 102° |
| 2026-04-20 15:39 | -30.67731 | -94.57867 | 35230 ft | 510 kts | 102° |
| 2026-04-20 15:40 | -30.69183 | -94.49814 | 35232 ft | 510 kts | 102° |
| 2026-04-20 15:40 | -30.70633 | -94.41747 | 35234 ft | 510 kts | 102° |
| 2026-04-20 15:41 | -30.72078 | -94.33674 | 35232 ft | 510 kts | 102° |
| 2026-04-20 15:41 | -30.73513 | -94.25613 | 35226 ft | 510 kts | 102° |
| 2026-04-20 15:42 | -30.74948 | -94.17530 | 35232 ft | 510 kts | 102° |
| 2026-04-20 15:42 | -30.76376 | -94.09447 | 35227 ft | 511 kts | 102° |
| 2026-04-20 15:43 | -30.77799 | -94.01364 | 35224 ft | 511 kts | 102° |
| 2026-04-20 15:43 | -30.79217 | -93.93280 | 35243 ft | 510 kts | 102° |
| 2026-04-20 15:44 | -30.80630 | -93.85198 | 35242 ft | 510 kts | 102° |
| 2026-04-20 15:44 | -30.82038 | -93.77111 | 35233 ft | 510 kts | 102° |
| 2026-04-20 15:45 | -30.83442 | -93.69029 | 35239 ft | 510 kts | 102° |
| 2026-04-20 15:45 | -30.84843 | -93.60940 | 35237 ft | 510 kts | 102° |
| 2026-04-20 15:46 | -30.86234 | -93.52852 | 35236 ft | 510 kts | 101° |
| 2026-04-20 15:46 | -30.87621 | -93.44763 | 35244 ft | 510 kts | 101° |
| 2026-04-20 15:47 | -30.89003 | -93.36667 | 35238 ft | 510 kts | 101° |
| 2026-04-20 15:47 | -30.90382 | -93.28568 | 35238 ft | 510 kts | 101° |
| 2026-04-20 15:48 | -30.91753 | -93.20473 | 35241 ft | 510 kts | 101° |
| 2026-04-20 15:48 | -30.93119 | -93.12374 | 35243 ft | 510 kts | 101° |
| 2026-04-20 15:49 | -30.94483 | -93.04264 | 35245 ft | 510 kts | 101° |
| 2026-04-20 15:49 | -30.95839 | -92.96163 | 35245 ft | 510 kts | 101° |
| 2026-04-20 15:50 | -30.97190 | -92.88051 | 35240 ft | 510 kts | 101° |
| 2026-04-20 15:50 | -30.98535 | -92.79940 | 35243 ft | 510 kts | 101° |
| 2026-04-20 15:51 | -30.99877 | -92.71825 | 35241 ft | 510 kts | 101° |
| 2026-04-20 15:51 | -31.01214 | -92.63715 | 35240 ft | 510 kts | 101° |
| 2026-04-20 15:52 | -31.02546 | -92.55597 | 35238 ft | 510 kts | 101° |
| 2026-04-20 15:52 | -31.03872 | -92.47484 | 35243 ft | 508 kts | 101° |
| 2026-04-20 15:53 | -31.05838 | -92.35396 | 35241 ft | 505 kts | 101° |
| 2026-04-20 15:53 | -31.07137 | -92.27362 | 35243 ft | 504 kts | 101° |
| 2026-04-20 15:54 | -31.08429 | -92.19344 | 35243 ft | 503 kts | 101° |
| 2026-04-20 15:54 | -31.09713 | -92.11339 | 35243 ft | 503 kts | 101° |
| 2026-04-20 15:55 | -31.10781 | -92.04651 | 35245 ft | 503 kts | 101° |
| 2026-04-20 15:55 | -31.12057 | -91.96639 | 35247 ft | 502 kts | 101° |
| 2026-04-20 15:56 | -31.13327 | -91.88627 | 35248 ft | 502 kts | 100° |
| 2026-04-20 15:56 | -31.14592 | -91.80613 | 35251 ft | 502 kts | 100° |
| 2026-04-20 15:57 | -31.15853 | -91.72592 | 35250 ft | 502 kts | 100° |
| 2026-04-20 15:57 | -31.17107 | -91.64576 | 35250 ft | 502 kts | 100° |
| 2026-04-20 15:58 | -31.18358 | -91.56555 | 35253 ft | 502 kts | 100° |
| 2026-04-20 15:58 | -31.19602 | -91.48538 | 35252 ft | 502 kts | 100° |
| 2026-04-20 15:59 | -31.20842 | -91.40514 | 35251 ft | 502 kts | 100° |
| 2026-04-20 15:59 | -31.22078 | -91.32487 | 35254 ft | 502 kts | 100° |
| 2026-04-20 16:00 | -31.23307 | -91.24460 | 35253 ft | 502 kts | 100° |
| 2026-04-20 16:00 | -31.24532 | -91.16432 | 35252 ft | 502 kts | 100° |
| 2026-04-20 16:01 | -31.25750 | -91.08414 | 35256 ft | 501 kts | 100° |
| 2026-04-20 16:01 | -31.26961 | -91.00402 | 35254 ft | 501 kts | 100° |
| 2026-04-20 16:02 | -31.28168 | -90.92389 | 35254 ft | 501 kts | 100° |
| 2026-04-20 16:02 | -31.29369 | -90.84376 | 35260 ft | 500 kts | 100° |
| 2026-04-20 16:03 | -31.30563 | -90.76371 | 35261 ft | 500 kts | 100° |
| 2026-04-20 16:03 | -31.31754 | -90.68353 | 35261 ft | 500 kts | 100° |
| 2026-04-20 16:04 | -31.32939 | -90.60342 | 35264 ft | 500 kts | 100° |
| 2026-04-20 16:04 | -31.34119 | -90.52326 | 35261 ft | 500 kts | 99° |
| 2026-04-20 16:05 | -31.35293 | -90.44314 | 35262 ft | 500 kts | 99° |
| 2026-04-20 16:05 | -31.36462 | -90.36292 | 35264 ft | 500 kts | 99° |
| 2026-04-20 16:06 | -31.37626 | -90.28276 | 35265 ft | 498 kts | 99° |
| 2026-04-20 16:06 | -31.38775 | -90.20331 | 35262 ft | 493 kts | 99° |
| 2026-04-20 16:07 | -31.39908 | -90.12443 | 35264 ft | 490 kts | 98° |
| 2026-04-20 16:07 | -31.40488 | -90.08375 | 35262 ft | 489 kts | 98° |
| 2026-04-20 17:13 | -31.41576 | -90.00761 | 35261 ft | 488 kts | 99° |
| 2026-04-20 17:14 | -31.42715 | -89.92944 | 35271 ft | 486 kts | 99° |
| 2026-04-20 17:14 | -31.43856 | -89.85157 | 35273 ft | 486 kts | 99° |
| 2026-04-20 17:15 | -31.44995 | -89.77367 | 35273 ft | 486 kts | 99° |
| 2026-04-20 17:15 | -31.46130 | -89.69572 | 35276 ft | 485 kts | 99° |
| 2026-04-20 17:16 | -31.47257 | -89.61789 | 35277 ft | 485 kts | 99° |
| 2026-04-20 17:16 | -31.48380 | -89.53998 | 35277 ft | 485 kts | 99° |
| 2026-04-20 17:17 | -31.49495 | -89.46216 | 35278 ft | 485 kts | 98° |
| 2026-04-20 17:17 | -31.50608 | -89.38414 | 35277 ft | 485 kts | 98° |
| 2026-04-20 17:18 | -31.51714 | -89.30619 | 35277 ft | 485 kts | 98° |
| 2026-04-20 17:18 | -31.52814 | -89.22826 | 35277 ft | 485 kts | 98° |
| 2026-04-20 17:19 | -31.53909 | -89.15037 | 35277 ft | 485 kts | 98° |
| 2026-04-20 17:19 | -31.55000 | -89.07230 | 35276 ft | 485 kts | 98° |
| 2026-04-20 17:20 | -31.56086 | -88.99431 | 35277 ft | 485 kts | 98° |
| 2026-04-20 17:20 | -31.57168 | -88.91625 | 35276 ft | 485 kts | 98° |
| 2026-04-20 17:21 | -31.58245 | -88.83816 | 35275 ft | 485 kts | 98° |
| 2026-04-20 17:21 | -31.59315 | -88.76015 | 35275 ft | 485 kts | 98° |
| 2026-04-20 17:22 | -31.60383 | -88.68204 | 35274 ft | 485 kts | 98° |
| 2026-04-20 17:22 | -31.61444 | -88.60394 | 35273 ft | 485 kts | 98° |
| 2026-04-20 17:23 | -31.62502 | -88.52578 | 35274 ft | 485 kts | 98° |
| 2026-04-20 17:23 | -31.63555 | -88.44763 | 35273 ft | 485 kts | 98° |
| 2026-04-20 17:24 | -31.64603 | -88.36944 | 35274 ft | 485 kts | 98° |
| 2026-04-20 17:24 | -31.65645 | -88.29131 | 35276 ft | 485 kts | 98° |
| 2026-04-20 17:25 | -31.66684 | -88.21310 | 35275 ft | 485 kts | 98° |
| 2026-04-20 17:25 | -31.67717 | -88.13489 | 35275 ft | 485 kts | 98° |
| 2026-04-20 17:26 | -31.68747 | -88.05660 | 35276 ft | 485 kts | 98° |
| 2026-04-20 17:26 | -31.69770 | -87.97840 | 35275 ft | 485 kts | 98° |
| 2026-04-20 17:27 | -31.70790 | -87.90003 | 35275 ft | 485 kts | 98° |
| 2026-04-20 17:27 | -31.71804 | -87.82180 | 35277 ft | 485 kts | 98° |
| 2026-04-20 17:28 | -31.72814 | -87.74344 | 35277 ft | 485 kts | 98° |
| 2026-04-20 17:28 | -31.73821 | -87.66509 | 35276 ft | 485 kts | 97° |
| 2026-04-20 17:29 | -31.74819 | -87.58698 | 35279 ft | 483 kts | 97° |
| 2026-04-20 17:29 | -31.75808 | -87.50911 | 35280 ft | 482 kts | 97° |
| 2026-04-20 17:30 | -31.76790 | -87.43144 | 35280 ft | 481 kts | 97° |
| 2026-04-20 17:30 | -31.77766 | -87.35376 | 35281 ft | 480 kts | 97° |
| 2026-04-20 17:31 | -31.78736 | -87.27616 | 35281 ft | 480 kts | 97° |
| 2026-04-20 17:31 | -31.79702 | -87.19848 | 35281 ft | 480 kts | 97° |
| 2026-04-20 17:32 | -31.80663 | -87.12086 | 35281 ft | 480 kts | 97° |
| 2026-04-20 17:32 | -31.81619 | -87.04327 | 35281 ft | 480 kts | 97° |
| 2026-04-20 17:33 | -31.82571 | -86.96557 | 35282 ft | 480 kts | 97° |
| 2026-04-20 17:33 | -31.83518 | -86.88787 | 35283 ft | 480 kts | 97° |
| 2026-04-20 17:34 | -31.84460 | -86.81024 | 35282 ft | 480 kts | 97° |
| 2026-04-20 17:34 | -31.85397 | -86.73256 | 35282 ft | 480 kts | 96° |
| 2026-04-20 17:35 | -31.86330 | -86.65483 | 35283 ft | 480 kts | 96° |
| 2026-04-20 17:35 | -31.87259 | -86.57705 | 35282 ft | 480 kts | 96° |
| 2026-04-20 17:36 | -31.88182 | -86.49933 | 35282 ft | 480 kts | 96° |
| 2026-04-20 17:36 | -31.89101 | -86.42150 | 35283 ft | 480 kts | 96° |
| 2026-04-20 17:37 | -31.90016 | -86.34364 | 35282 ft | 480 kts | 96° |
| 2026-04-20 17:37 | -31.90925 | -86.26586 | 35282 ft | 481 kts | 96° |
| 2026-04-20 17:38 | -31.91831 | -86.18790 | 35283 ft | 481 kts | 96° |
| 2026-04-20 17:38 | -31.92731 | -86.11011 | 35282 ft | 481 kts | 96° |
| 2026-04-20 17:39 | -31.93627 | -86.03214 | 35282 ft | 481 kts | 96° |
| 2026-04-20 17:39 | -31.94518 | -85.95415 | 35283 ft | 481 kts | 96° |
| 2026-04-20 17:40 | -31.95404 | -85.87622 | 35283 ft | 481 kts | 96° |
| 2026-04-20 17:40 | -31.96285 | -85.79826 | 35282 ft | 481 kts | 96° |
| 2026-04-20 17:41 | -31.97163 | -85.72021 | 35283 ft | 481 kts | 96° |
| 2026-04-20 17:41 | -31.98036 | -85.64209 | 35283 ft | 481 kts | 96° |
| 2026-04-20 17:42 | -31.98902 | -85.56411 | 35282 ft | 481 kts | 95° |
| 2026-04-20 17:42 | -31.99767 | -85.48587 | 35283 ft | 483 kts | 96° |
| 2026-04-20 17:43 | -32.00629 | -85.40707 | 35284 ft | 487 kts | 97° |
| 2026-04-20 17:43 | -32.01492 | -85.32767 | 35285 ft | 490 kts | 97° |
| 2026-04-20 17:44 | -32.02359 | -85.24780 | 35285 ft | 492 kts | 97° |
| 2026-04-20 17:44 | -32.03223 | -85.16776 | 35285 ft | 494 kts | 97° |
| 2026-04-20 17:45 | -32.04082 | -85.08748 | 35285 ft | 494 kts | 97° |
| 2026-04-20 17:45 | -32.04931 | -85.00701 | 35286 ft | 495 kts | 97° |
| 2026-04-20 17:46 | -32.05618 | -84.93994 | 35286 ft | 495 kts | 96° |
| 2026-04-20 17:46 | -32.06429 | -84.85934 | 35285 ft | 495 kts | 96° |
| 2026-04-20 17:47 | -32.07230 | -84.77870 | 35286 ft | 496 kts | 96° |
| 2026-04-20 17:47 | -32.08023 | -84.69807 | 35286 ft | 496 kts | 96° |
| 2026-04-20 17:48 | -32.08809 | -84.61738 | 35286 ft | 496 kts | 96° |
| 2026-04-20 17:48 | -32.09591 | -84.53657 | 35287 ft | 496 kts | 96° |
| 2026-04-20 17:49 | -32.10368 | -84.45579 | 35286 ft | 496 kts | 96° |
| 2026-04-20 17:49 | -32.11138 | -84.37502 | 35286 ft | 496 kts | 96° |
| 2026-04-20 17:50 | -32.11904 | -84.29422 | 35287 ft | 496 kts | 96° |
| 2026-04-20 17:50 | -32.12665 | -84.21337 | 35287 ft | 496 kts | 96° |
| 2026-04-20 17:51 | -32.13419 | -84.13258 | 35287 ft | 496 kts | 96° |
| 2026-04-20 17:51 | -32.14170 | -84.05169 | 35287 ft | 496 kts | 96° |
| 2026-04-20 17:52 | -32.14915 | -83.97081 | 35287 ft | 496 kts | 96° |
| 2026-04-20 17:52 | -32.15655 | -83.88988 | 35287 ft | 496 kts | 96° |
| 2026-04-20 17:53 | -32.16390 | -83.80896 | 35287 ft | 496 kts | 96° |
| 2026-04-20 17:53 | -32.17119 | -83.72808 | 35286 ft | 496 kts | 96° |
| 2026-04-20 17:54 | -32.17844 | -83.64705 | 35286 ft | 496 kts | 96° |
| 2026-04-20 17:54 | -32.18563 | -83.56614 | 35286 ft | 496 kts | 96° |
| 2026-04-20 17:55 | -32.19278 | -83.48513 | 35285 ft | 496 kts | 96° |
| 2026-04-20 17:55 | -32.19987 | -83.40414 | 35284 ft | 496 kts | 96° |
| 2026-04-20 17:56 | -32.20692 | -83.32303 | 35284 ft | 496 kts | 96° |
| 2026-04-20 17:56 | -32.21390 | -83.24209 | 35284 ft | 496 kts | 95° |
| 2026-04-20 17:57 | -32.22084 | -83.16099 | 35283 ft | 497 kts | 95° |
| 2026-04-20 17:57 | -32.22773 | -83.07986 | 35283 ft | 497 kts | 95° |
| 2026-04-20 17:58 | -32.23457 | -82.99875 | 35282 ft | 497 kts | 95° |
| 2026-04-20 17:58 | -32.24135 | -82.91769 | 35281 ft | 497 kts | 95° |
| 2026-04-20 17:59 | -32.24809 | -82.83651 | 35281 ft | 497 kts | 95° |
| 2026-04-20 17:59 | -32.25477 | -82.75531 | 35281 ft | 497 kts | 95° |
| 2026-04-20 18:00 | -32.26140 | -82.67414 | 35280 ft | 497 kts | 95° |
| 2026-04-20 18:00 | -32.26798 | -82.59296 | 35280 ft | 497 kts | 95° |
| 2026-04-20 18:01 | -32.27451 | -82.51170 | 35279 ft | 497 kts | 95° |
| 2026-04-20 18:01 | -32.28098 | -82.43043 | 35282 ft | 497 kts | 95° |
| 2026-04-20 18:02 | -32.28741 | -82.34910 | 35282 ft | 498 kts | 95° |
| 2026-04-20 18:02 | -32.29380 | -82.26766 | 35282 ft | 498 kts | 95° |
| 2026-04-20 18:03 | -32.30013 | -82.18626 | 35283 ft | 498 kts | 95° |
| 2026-04-20 18:03 | -32.30642 | -82.10481 | 35283 ft | 498 kts | 95° |
| 2026-04-20 18:04 | -32.31265 | -82.02331 | 35284 ft | 498 kts | 95° |
| 2026-04-20 18:04 | -32.31882 | -81.94197 | 35285 ft | 498 kts | 95° |
| 2026-04-20 18:05 | -32.32799 | -81.81970 | 35284 ft | 498 kts | 95° |
| 2026-04-20 18:05 | -32.33403 | -81.73823 | 35286 ft | 498 kts | 95° |
| 2026-04-20 18:06 | -32.34003 | -81.65665 | 35286 ft | 498 kts | 95° |
| 2026-04-20 18:06 | -32.34597 | -81.57518 | 35286 ft | 498 kts | 95° |
| 2026-04-20 18:07 | -32.35185 | -81.49370 | 35287 ft | 498 kts | 95° |
| 2026-04-20 18:07 | -32.35768 | -81.41218 | 35286 ft | 498 kts | 95° |
| 2026-04-20 18:08 | -32.36346 | -81.33069 | 35286 ft | 498 kts | 95° |
| 2026-04-20 18:08 | -32.36919 | -81.24909 | 35283 ft | 498 kts | 95° |
| 2026-04-20 18:09 | -32.37486 | -81.16764 | 35284 ft | 498 kts | 95° |
| 2026-04-20 18:09 | -32.38048 | -81.08614 | 35285 ft | 498 kts | 95° |
| 2026-04-20 18:10 | -32.38606 | -81.00447 | 35284 ft | 498 kts | 95° |
| 2026-04-20 18:10 | -32.39157 | -80.92294 | 35285 ft | 498 kts | 95° |
| 2026-04-20 18:11 | -32.39702 | -80.84146 | 35284 ft | 498 kts | 95° |
| 2026-04-20 18:11 | -32.40244 | -80.75978 | 35282 ft | 498 kts | 95° |
| 2026-04-20 18:12 | -32.40779 | -80.67820 | 35283 ft | 498 kts | 94° |
| 2026-04-20 18:12 | -32.41309 | -80.59662 | 35280 ft | 498 kts | 94° |
| 2026-04-20 18:13 | -32.41834 | -80.51496 | 35277 ft | 498 kts | 94° |
| 2026-04-20 18:13 | -32.42353 | -80.43345 | 35278 ft | 498 kts | 94° |
| 2026-04-20 18:14 | -32.42867 | -80.35176 | 35273 ft | 498 kts | 94° |
| 2026-04-20 18:14 | -32.43374 | -80.27017 | 35271 ft | 498 kts | 94° |
| 2026-04-20 18:15 | -32.43876 | -80.18851 | 35273 ft | 497 kts | 94° |
| 2026-04-20 18:15 | -32.44371 | -80.10691 | 35269 ft | 497 kts | 94° |
| 2026-04-20 18:16 | -32.44864 | -80.02522 | 35267 ft | 497 kts | 95° |
| 2026-04-20 18:16 | -32.45394 | -79.94405 | 35268 ft | 494 kts | 96° |
| 2026-04-20 18:17 | -32.45945 | -79.86329 | 35267 ft | 490 kts | 96° |
| 2026-04-20 18:17 | -32.46498 | -79.78316 | 35266 ft | 486 kts | 96° |
| 2026-04-20 18:18 | -32.47045 | -79.70367 | 35266 ft | 484 kts | 96° |
| 2026-04-20 18:18 | -32.47586 | -79.62427 | 35270 ft | 483 kts | 96° |
| 2026-04-20 18:19 | -32.48119 | -79.54518 | 35272 ft | 482 kts | 96° |
| 2026-04-20 18:19 | -32.48646 | -79.46606 | 35271 ft | 482 kts | 96° |
| 2026-04-20 18:20 | -32.49165 | -79.38714 | 35276 ft | 481 kts | 96° |
| 2026-04-20 18:20 | -32.49680 | -79.30807 | 35277 ft | 481 kts | 96° |
| 2026-04-20 18:21 | -32.50187 | -79.22914 | 35275 ft | 481 kts | 96° |
| 2026-04-20 18:21 | -32.50690 | -79.15011 | 35277 ft | 481 kts | 96° |
| 2026-04-20 18:22 | -32.51188 | -79.07115 | 35276 ft | 481 kts | 96° |
| 2026-04-20 18:22 | -32.51680 | -78.99203 | 35274 ft | 481 kts | 96° |
| 2026-04-20 18:23 | -32.52168 | -78.91300 | 35268 ft | 481 kts | 96° |
| 2026-04-20 18:23 | -32.52649 | -78.83401 | 35264 ft | 481 kts | 96° |
| 2026-04-20 18:24 | -32.53127 | -78.75488 | 35262 ft | 481 kts | 96° |
| 2026-04-20 18:24 | -32.53599 | -78.67580 | 35246 ft | 482 kts | 95° |
| 2026-04-20 18:25 | -32.54067 | -78.59668 | 35244 ft | 481 kts | 95° |
| 2026-04-20 18:25 | -32.54529 | -78.51750 | 35242 ft | 481 kts | 95° |
| 2026-04-20 18:26 | -32.54987 | -78.43835 | 35228 ft | 482 kts | 95° |
| 2026-04-20 18:26 | -32.55439 | -78.35926 | 35227 ft | 482 kts | 95° |
| 2026-04-20 18:27 | -32.55886 | -78.28012 | 35227 ft | 482 kts | 95° |
| 2026-04-20 18:27 | -32.56329 | -78.20088 | 35216 ft | 482 kts | 95° |
| 2026-04-20 18:28 | -32.56766 | -78.12168 | 35217 ft | 482 kts | 95° |
| 2026-04-20 18:28 | -32.57199 | -78.04247 | 35216 ft | 482 kts | 95° |
| 2026-04-20 18:29 | -32.57627 | -77.96330 | 35211 ft | 482 kts | 95° |
| 2026-04-20 18:29 | -32.58049 | -77.88404 | 35212 ft | 482 kts | 95° |
| 2026-04-20 18:30 | -32.58468 | -77.80473 | 35212 ft | 482 kts | 95° |
| 2026-04-20 18:30 | -32.58873 | -77.72513 | 35205 ft | 487 kts | 99° |
| 2026-04-20 18:31 | -32.59292 | -77.64433 | 35208 ft | 495 kts | 97° |
| 2026-04-20 18:31 | -32.59726 | -77.56217 | 35212 ft | 505 kts | 94° |
| 2026-04-20 18:32 | -32.60158 | -77.47840 | 35215 ft | 513 kts | 93° |
| 2026-04-20 18:32 | -32.60580 | -77.39321 | 35217 ft | 521 kts | 93° |
| 2026-04-20 18:33 | -32.60998 | -77.30701 | 35217 ft | 526 kts | 93° |
| 2026-04-20 18:33 | -32.61412 | -77.22019 | 35217 ft | 529 kts | 93° |
| 2026-04-20 18:34 | -32.61823 | -77.13290 | 35218 ft | 531 kts | 93° |
| 2026-04-20 18:34 | -32.62230 | -77.04547 | 35221 ft | 532 kts | 93° |
| 2026-04-20 18:35 | -32.62632 | -76.95779 | 35222 ft | 533 kts | 93° |
| 2026-04-20 18:35 | -32.63028 | -76.87000 | 35223 ft | 533 kts | 93° |
| 2026-04-20 18:36 | -32.63419 | -76.78227 | 35225 ft | 534 kts | 92° |
| 2026-04-20 18:36 | -32.63805 | -76.69427 | 35226 ft | 534 kts | 92° |
| 2026-04-20 18:37 | -32.64184 | -76.60641 | 35227 ft | 534 kts | 92° |
| 2026-04-20 18:37 | -32.64557 | -76.51847 | 35228 ft | 534 kts | 92° |
| 2026-04-20 18:38 | -32.64925 | -76.43040 | 35228 ft | 534 kts | 92° |
| 2026-04-20 18:38 | -32.65286 | -76.34247 | 35228 ft | 534 kts | 92° |
| 2026-04-20 18:39 | -32.65641 | -76.25450 | 35229 ft | 534 kts | 92° |
| 2026-04-20 18:39 | -32.65991 | -76.16634 | 35229 ft | 534 kts | 92° |
| 2026-04-20 18:40 | -32.66334 | -76.07826 | 35228 ft | 534 kts | 92° |
| 2026-04-20 18:40 | -32.66670 | -75.99021 | 35228 ft | 534 kts | 92° |
| 2026-04-20 18:41 | -32.66946 | -75.91685 | 35228 ft | 534 kts | 92° |
| 2026-04-20 18:41 | -32.67271 | -75.82880 | 35227 ft | 534 kts | 92° |
| 2026-04-20 18:42 | -32.67590 | -75.74069 | 35227 ft | 534 kts | 92° |
| 2026-04-20 18:42 | -32.67903 | -75.65263 | 35226 ft | 534 kts | 92° |
| 2026-04-20 18:43 | -32.68209 | -75.56457 | 35225 ft | 534 kts | 92° |
| 2026-04-20 18:43 | -32.68509 | -75.47645 | 35225 ft | 534 kts | 92° |
| 2026-04-20 18:44 | -32.68802 | -75.38833 | 35223 ft | 534 kts | 92° |
| 2026-04-20 18:44 | -32.69089 | -75.30021 | 35223 ft | 534 kts | 92° |
| 2026-04-20 18:45 | -32.69369 | -75.21222 | 35223 ft | 534 kts | 92° |
| 2026-04-20 18:45 | -32.69641 | -75.12407 | 35223 ft | 534 kts | 91° |
| 2026-04-20 18:46 | -32.69903 | -75.03610 | 35225 ft | 534 kts | 91° |
| 2026-04-20 18:46 | -32.70141 | -74.94826 | 35239 ft | 530 kts | 93° |
| 2026-04-20 18:47 | -32.70356 | -74.86115 | 35244 ft | 526 kts | 93° |
| 2026-04-20 18:47 | -32.70561 | -74.77452 | 35249 ft | 524 kts | 93° |
| 2026-04-20 18:48 | -32.70758 | -74.68822 | 35263 ft | 523 kts | 93° |
| 2026-04-20 18:48 | -32.70949 | -74.60201 | 35267 ft | 522 kts | 93° |
| 2026-04-20 18:49 | -32.71132 | -74.51588 | 35267 ft | 522 kts | 92° |
| 2026-04-20 18:49 | -32.71309 | -74.42977 | 35263 ft | 522 kts | 92° |
| 2026-04-20 18:50 | -32.71479 | -74.34373 | 35270 ft | 521 kts | 92° |
| 2026-04-20 18:50 | -32.71643 | -74.25778 | 35274 ft | 521 kts | 92° |
| 2026-04-20 18:51 | -32.71801 | -74.17179 | 35275 ft | 521 kts | 92° |
| 2026-04-20 18:51 | -32.71953 | -74.08575 | 35278 ft | 521 kts | 92° |
| 2026-04-20 18:52 | -32.72099 | -73.99971 | 35280 ft | 522 kts | 92° |
| 2026-04-20 18:52 | -32.72239 | -73.91357 | 35281 ft | 522 kts | 92° |
| 2026-04-20 18:53 | -32.72373 | -73.82747 | 35283 ft | 522 kts | 92° |
| 2026-04-20 18:53 | -32.72501 | -73.74129 | 35281 ft | 522 kts | 92° |
| 2026-04-20 18:54 | -32.72623 | -73.65513 | 35283 ft | 522 kts | 92° |
| 2026-04-20 18:54 | -32.72739 | -73.56898 | 35281 ft | 522 kts | 92° |
| 2026-04-20 18:55 | -32.72849 | -73.48281 | 35276 ft | 522 kts | 92° |
| 2026-04-20 18:55 | -32.72953 | -73.39667 | 35277 ft | 522 kts | 92° |
| 2026-04-20 18:56 | -32.73050 | -73.31047 | 35268 ft | 522 kts | 92° |
| 2026-04-20 18:56 | -32.73141 | -73.22434 | 35263 ft | 522 kts | 92° |
| 2026-04-20 18:57 | -32.73225 | -73.13823 | 35262 ft | 522 kts | 92° |
| 2026-04-20 18:57 | -32.73300 | -73.05206 | 35244 ft | 522 kts | 92° |
| 2026-04-20 18:58 | -32.73377 | -72.96595 | 35241 ft | 522 kts | 92° |
| 2026-04-20 18:58 | -32.73456 | -72.87977 | 35236 ft | 522 kts | 92° |
| 2026-04-20 18:59 | -32.73532 | -72.79360 | 35214 ft | 522 kts | 92° |
| 2026-04-20 18:59 | -32.73601 | -72.70730 | 35212 ft | 522 kts | 92° |
| 2026-04-20 19:00 | -32.73664 | -72.62114 | 35196 ft | 523 kts | 92° |
| 2026-04-20 19:00 | -32.73698 | -72.57227 | 35179 ft | 526 kts | 91° |
| 2026-04-20 19:01 | -32.73759 | -72.48471 | 35181 ft | 534 kts | 89° |
| 2026-04-20 19:01 | -32.73806 | -72.39608 | 35182 ft | 540 kts | 89° |
| 2026-04-20 19:02 | -32.73843 | -72.30673 | 35181 ft | 543 kts | 89° |
| 2026-04-20 19:02 | -32.73873 | -72.21701 | 35183 ft | 545 kts | 89° |
| 2026-04-20 19:03 | -32.73889 | -72.16075 | 35183 ft | 546 kts | 89° |
| 2026-04-20 19:03 | -32.73909 | -72.07065 | 35184 ft | 546 kts | 89° |
| 2026-04-20 19:04 | -32.73923 | -71.98048 | 35187 ft | 547 kts | 89° |
| 2026-04-20 19:04 | -32.73931 | -71.89042 | 35192 ft | 547 kts | 88° |
| 2026-04-20 19:05 | -32.73931 | -71.80007 | 35197 ft | 547 kts | 88° |
| 2026-04-20 19:05 | -32.73926 | -71.71419 | 35203 ft | 547 kts | 88° |
| 2026-04-20 19:06 | -32.73912 | -71.62392 | 35214 ft | 547 kts | 88° |
| 2026-04-20 19:06 | -32.73896 | -71.53367 | 35223 ft | 547 kts | 89° |
| 2026-04-20 19:07 | -32.74773 | -71.44395 | 35227 ft | 548 kts | 102° |
| 2026-04-20 19:07 | -32.76806 | -71.35698 | 35228 ft | 548 kts | 109° |
| 2026-04-20 19:08 | -32.80860 | -71.23004 | 35227 ft | 547 kts | 113° |
| 2026-04-20 19:09 | -32.83553 | -71.14508 | 35220 ft | 553 kts | 110° |
| 2026-04-20 19:09 | -32.86046 | -71.05805 | 35229 ft | 560 kts | 108° |
| 2026-04-20 19:10 | -32.88431 | -70.96945 | 35230 ft | 564 kts | 108° |
| 2026-04-20 19:10 | -32.90751 | -70.88029 | 35230 ft | 566 kts | 108° |
| 2026-04-20 19:11 | -32.94255 | -70.79768 | 35226 ft | 557 kts | 135° |
| 2026-04-20 19:11 | -32.97101 | -70.76741 | 35229 ft | 542 kts | 153° |
| 2026-04-20 19:11 | -33.00405 | -70.74788 | 35231 ft | 523 kts | 171° |
| 2026-04-20 19:11 | -33.03894 | -70.74019 | 35231 ft | 499 kts | 188° |
| 2026-04-20 19:12 | -33.07265 | -70.74387 | 35236 ft | 480 kts | 201° |
| 2026-04-20 19:12 | -33.13678 | -70.76309 | 35233 ft | 475 kts | 205° |
| 2026-04-20 19:13 | -33.20139 | -70.78196 | 35230 ft | 482 kts | 201° |
| 2026-04-20 19:13 | -33.26843 | -70.79336 | 35229 ft | 493 kts | 194° |
| 2026-04-20 19:14 | -33.33751 | -70.79643 | 35230 ft | 500 kts | 189° |
| 2026-04-20 19:14 | -33.40740 | -70.79372 | 35228 ft | 509 kts | 183° |
| 2026-04-20 19:14 | -33.44265 | -70.78422 | 35224 ft | 529 kts | 167° |
| 2026-04-20 19:15 | -33.47543 | -70.76314 | 35228 ft | 546 kts | 149° |
| 2026-04-20 19:15 | -33.50317 | -70.73157 | 35230 ft | 558 kts | 132° |
| 2026-04-20 19:15 | -33.52347 | -70.69179 | 35231 ft | 565 kts | 115° |
| 2026-04-20 19:15 | -33.53462 | -70.64679 | 35234 ft | 563 kts | 97° |
| 2026-04-20 19:16 | -33.53570 | -70.60028 | 35233 ft | 555 kts | 80° |
| 2026-04-20 19:16 | -33.52681 | -70.55602 | 35230 ft | 542 kts | 62° |
| 2026-04-20 19:16 | -33.50891 | -70.51722 | 35230 ft | 524 kts | 44° |
| 2026-04-20 19:16 | -33.48379 | -70.48697 | 35231 ft | 502 kts | 26° |
| 2026-04-20 19:17 | -33.45404 | -70.46755 | 35231 ft | 476 kts | 9° |
| 2026-04-20 19:17 | -33.42252 | -70.46007 | 35231 ft | 451 kts | 351° |
| 2026-04-20 19:17 | -33.39246 | -70.46459 | 35231 ft | 427 kts | 334° |
| 2026-04-20 19:17 | -33.36665 | -70.48007 | 35231 ft | 408 kts | 316° |
| 2026-04-20 19:18 | -33.34780 | -70.50435 | 35231 ft | 396 kts | 298° |
| 2026-04-20 19:18 | -33.33772 | -70.53474 | 35231 ft | 394 kts | 281° |
| 2026-04-20 19:18 | -33.33637 | -70.56740 | 35235 ft | 398 kts | 270° |
| 2026-04-20 19:19 | -33.34639 | -70.63324 | 35233 ft | 406 kts | 260° |
| 2026-04-20 19:19 | -33.36313 | -70.69819 | 35231 ft | 411 kts | 257° |
| 2026-04-20 19:20 | -33.38269 | -70.76248 | 35229 ft | 413 kts | 255° |
| 2026-04-20 19:20 | -33.40831 | -70.82462 | 35224 ft | 429 kts | 239° |
| 2026-04-20 19:20 | -33.43101 | -70.84884 | 35227 ft | 451 kts | 221° |
| 2026-04-20 19:21 | -33.46039 | -70.86402 | 35230 ft | 476 kts | 204° |
| 2026-04-20 19:21 | -33.49407 | -70.86824 | 35231 ft | 501 kts | 186° |
| 2026-04-20 19:21 | -33.51642 | -70.86464 | 35231 ft | 516 kts | 175° |
| 2026-04-20 19:21 | -33.55048 | -70.84912 | 35230 ft | 536 kts | 158° |
| 2026-04-20 19:22 | -33.58075 | -70.82239 | 35233 ft | 549 kts | 140° |
| 2026-04-20 19:22 | -33.60459 | -70.78620 | 35232 ft | 556 kts | 122° |
| 2026-04-20 19:22 | -33.61977 | -70.74365 | 35231 ft | 558 kts | 105° |
| 2026-04-20 19:22 | -33.62521 | -70.69779 | 35231 ft | 554 kts | 87° |
| 2026-04-20 19:23 | -33.62050 | -70.65234 | 35231 ft | 545 kts | 70° |
| 2026-04-20 19:23 | -33.60627 | -70.61111 | 35231 ft | 530 kts | 52° |
| 2026-04-20 19:23 | -33.58393 | -70.57711 | 35230 ft | 511 kts | 35° |
| 2026-04-20 19:23 | -33.55567 | -70.55300 | 35230 ft | 489 kts | 17° |
| 2026-04-20 19:24 | -33.52453 | -70.54050 | 35232 ft | 463 kts | 359° |
| 2026-04-20 19:24 | -33.49330 | -70.54009 | 35231 ft | 437 kts | 341° |
| 2026-04-20 19:24 | -33.46531 | -70.55122 | 35231 ft | 416 kts | 323° |
| 2026-04-20 19:24 | -33.44325 | -70.57214 | 35231 ft | 401 kts | 306° |
| 2026-04-20 19:25 | -33.42825 | -70.59986 | 35235 ft | 396 kts | 294° |
| 2026-04-20 19:25 | -33.41050 | -70.66200 | 35233 ft | 397 kts | 284° |
| 2026-04-20 19:26 | -33.39989 | -70.72702 | 35231 ft | 399 kts | 280° |
| 2026-04-20 19:26 | -33.39330 | -70.79284 | 35229 ft | 401 kts | 275° |
| 2026-04-20 19:26 | -33.39506 | -70.82636 | 35224 ft | 407 kts | 261° |
| 2026-04-20 19:27 | -33.40626 | -70.85775 | 35227 ft | 422 kts | 244° |
| 2026-04-20 19:27 | -33.42662 | -70.88402 | 35230 ft | 444 kts | 226° |
| 2026-04-20 19:27 | -33.45451 | -70.90206 | 35231 ft | 468 kts | 209° |
| 2026-04-20 19:27 | -33.48709 | -70.90943 | 35231 ft | 494 kts | 191° |
| 2026-04-20 19:28 | -33.52206 | -70.90496 | 35231 ft | 517 kts | 174° |
| 2026-04-20 19:28 | -33.55583 | -70.88847 | 35232 ft | 537 kts | 156° |
| 2026-04-20 19:28 | -33.58583 | -70.86089 | 35150 ft | 551 kts | 139° |
| 2026-04-20 19:28 | -33.61013 | -70.82437 | 34465 ft | 570 kts | 124° |
| 2026-04-20 19:29 | -33.62697 | -70.78089 | 33296 ft | 584 kts | 108° |
| 2026-04-20 19:29 | -33.63446 | -70.73321 | 32065 ft | 577 kts | 91° |
| 2026-04-20 19:29 | -33.63189 | -70.68612 | 30818 ft | 555 kts | 75° |
| 2026-04-20 19:29 | -33.61989 | -70.64342 | 29574 ft | 531 kts | 57° |
| 2026-04-20 19:30 | -33.59968 | -70.60764 | 28326 ft | 506 kts | 40° |
| 2026-04-20 19:30 | -33.57338 | -70.58146 | 27079 ft | 479 kts | 22° |
| 2026-04-20 19:30 | -33.54372 | -70.56660 | 25834 ft | 450 kts | 5° |
| 2026-04-20 19:30 | -33.51350 | -70.56371 | 24590 ft | 427 kts | 348° |
| 2026-04-20 19:31 | -33.48565 | -70.57238 | 23345 ft | 406 kts | 329° |
| 2026-04-20 19:31 | -33.46192 | -70.58965 | 22111 ft | 395 kts | 321° |
| 2026-04-20 19:31 | -33.43931 | -70.60809 | 20870 ft | 394 kts | 326° |
| 2026-04-20 19:31 | -33.41387 | -70.62038 | 19615 ft | 398 kts | 342° |
| 2026-04-20 19:32 | -33.38641 | -70.62494 | 18381 ft | 401 kts | 351° |
| 2026-04-20 19:32 | -33.35861 | -70.62555 | 17140 ft | 400 kts | 356° |
| 2026-04-20 19:32 | -33.35461 | -70.62545 | 16961 ft | 400 kts | 356° |
| 2026-04-20 19:32 | -33.34489 | -70.62509 | 16515 ft | 400 kts | 358° |
| 2026-04-20 19:33 | -33.31720 | -70.62332 | 15266 ft | 399 kts | 359° |
| 2026-04-20 19:33 | -33.31094 | -70.62283 | 14984 ft | 399 kts | 360° |
| 2026-04-20 19:33 | -33.30179 | -70.62207 | 14576 ft | 397 kts | 0° |
| 2026-04-20 19:33 | -33.27442 | -70.61964 | 13332 ft | 393 kts | 0° |
| 2026-04-20 19:34 | -33.24723 | -70.61722 | 12078 ft | 388 kts | 1° |
| 2026-04-20 19:34 | -33.22047 | -70.61686 | 10846 ft | 382 kts | 355° |
| 2026-04-20 19:34 | -33.19491 | -70.61976 | 10531 ft | 355 kts | 351° |
| 2026-04-20 19:34 | -33.17094 | -70.62384 | 9783 ft | 344 kts | 349° |
| 2026-04-20 19:35 | -33.14759 | -70.62857 | 9029 ft | 337 kts | 348° |
| 2026-04-20 19:35 | -33.12473 | -70.63359 | 8275 ft | 331 kts | 348° |
| 2026-04-20 19:35 | -33.10234 | -70.63874 | 7524 ft | 327 kts | 348° |
| 2026-04-20 19:35 | -33.08039 | -70.64494 | 6875 ft | 319 kts | 339° |
| 2026-04-20 19:36 | -33.06276 | -70.65777 | 6893 ft | 281 kts | 313° |
| 2026-04-20 19:36 | -33.05399 | -70.67461 | 6888 ft | 258 kts | 289° |
| 2026-04-20 19:36 | -33.05278 | -70.69535 | 6795 ft | 251 kts | 266° |
| 2026-04-20 19:36 | -33.05610 | -70.71581 | 6530 ft | 256 kts | 258° |
| 2026-04-20 19:37 | -33.05978 | -70.72938 | 6182 ft | 259 kts | 249° |
| 2026-04-20 19:37 | -33.07123 | -70.75426 | 5529 ft | 256 kts | 240° |
| 2026-04-20 19:37 | -33.07770 | -70.76616 | 5191 ft | 256 kts | 235° |
| 2026-04-20 19:37 | -33.09473 | -70.78505 | 4741 ft | 245 kts | 213° |
| 2026-04-20 19:38 | -33.10451 | -70.79127 | 4699 ft | 237 kts | 206° |
| 2026-04-20 19:38 | -33.11991 | -70.79818 | 4577 ft | 240 kts | 199° |
| 2026-04-20 19:38 | -33.13649 | -70.80304 | 4206 ft | 247 kts | 192° |
| 2026-04-20 19:38 | -33.15344 | -70.80528 | 3833 ft | 246 kts | 184° |
| 2026-04-20 19:39 | -33.17046 | -70.80484 | 3456 ft | 243 kts | 177° |
| 2026-04-20 19:39 | -33.18675 | -70.80233 | 3256 ft | 226 kts | 172° |
| 2026-04-20 19:39 | -33.20178 | -70.79913 | 3217 ft | 215 kts | 171° |
| 2026-04-20 19:39 | -33.21658 | -70.79621 | 3201 ft | 222 kts | 173° |
| 2026-04-20 19:40 | -33.23222 | -70.79418 | 3200 ft | 232 kts | 176° |
| 2026-04-20 19:40 | -33.24844 | -70.79327 | 3188 ft | 231 kts | 180° |
| 2026-04-20 19:40 | -33.26452 | -70.79313 | 3183 ft | 230 kts | 181° |
| 2026-04-20 19:40 | -33.28054 | -70.79301 | 3186 ft | 232 kts | 180° |
| 2026-04-20 19:41 | -33.29665 | -70.79233 | 3178 ft | 234 kts | 178° |
| 2026-04-20 19:41 | -33.31318 | -70.79105 | 2925 ft | 242 kts | 177° |
| 2026-04-20 19:41 | -33.32992 | -70.78959 | 2526 ft | 239 kts | 178° |
| 2026-04-20 19:41 | -33.34614 | -70.78836 | 2204 ft | 227 kts | 178° |
| 2026-04-20 19:42 | -33.36105 | -70.78730 | 1945 ft | 204 kts | 178° |
| 2026-04-20 19:42 | -33.37442 | -70.78673 | 1628 ft | 181 kts | 179° |
| 2026-04-20 19:42 | -33.38589 | -70.78634 | 1569 ft | 142 kts | 178° |
| 2026-04-20 19:42 | -33.39397 | -70.78584 | 1569 ft | 91 kts | 176° |
| 2026-04-20 19:43 | -33.39735 | -70.78553 | 1569 ft | 59 kts | 177° |
| 2026-04-20 19:43 | -33.40081 | -70.78537 | 1569 ft | 23 kts | 176° |
| 2026-04-20 19:43 | -33.40169 | -70.78531 | 1569 ft | 22 kts | 176° |
| 2026-04-20 19:43 | -33.40282 | -70.78522 | 1569 ft | 14 kts | 176° |
| 2026-04-20 19:44 | -33.40366 | -70.78516 | 1569 ft | 11 kts | 176° |
| 2026-04-20 19:44 | -33.40439 | -70.78516 | 1569 ft | 8 kts | 191° |
| 2026-04-20 19:44 | -33.40478 | -70.78544 | 1570 ft | 5 kts | 237° |
| 2026-04-20 19:44 | -33.40483 | -70.78584 | 1570 ft | 5 kts | 276° |
| 2026-04-20 19:45 | -33.40475 | -70.78624 | 1570 ft | 6 kts | 292° |
| 2026-04-20 19:45 | -33.40450 | -70.78678 | 1570 ft | 8 kts | 309° |
| 2026-04-20 19:45 | -33.40398 | -70.78720 | 1570 ft | 9 kts | 341° |
| 2026-04-20 19:45 | -33.40343 | -70.78730 | 1570 ft | 9 kts | 355° |
| 2026-04-20 19:46 | -33.40334 | -70.78731 | 1570 ft | 9 kts | 355° |
| 2026-04-20 19:46 | -33.40299 | -70.78734 | 1570 ft | 11 kts | 355° |
| 2026-04-20 19:46 | -33.40212 | -70.78742 | 1570 ft | 15 kts | 356° |
| 2026-04-20 19:46 | -33.40109 | -70.78749 | 1570 ft | 16 kts | 356° |
| 2026-04-20 19:47 | -33.39985 | -70.78756 | 1570 ft | 20 kts | 358° |
| 2026-04-20 19:47 | -33.39849 | -70.78765 | 1570 ft | 17 kts | 356° |
| 2026-04-20 19:47 | -33.39735 | -70.78771 | 1570 ft | 16 kts | 358° |
| 2026-04-20 19:47 | -33.39624 | -70.78776 | 1570 ft | 16 kts | 356° |
| 2026-04-20 19:48 | -33.39516 | -70.78784 | 1570 ft | 15 kts | 356° |
| 2026-04-20 19:48 | -33.39409 | -70.78792 | 1570 ft | 15 kts | 356° |
| 2026-04-20 19:48 | -33.39325 | -70.78798 | 1570 ft | 15 kts | 356° |
| 2026-04-20 19:48 | -33.39222 | -70.78805 | 1570 ft | 15 kts | 356° |
| 2026-04-20 19:49 | -33.39121 | -70.78810 | 1570 ft | 14 kts | 358° |
| 2026-04-20 19:49 | -33.39023 | -70.78813 | 1570 ft | 14 kts | 358° |
| 2026-04-20 19:49 | -33.38926 | -70.78817 | 1570 ft | 14 kts | 357° |
| 2026-04-20 19:49 | -33.38831 | -70.78823 | 1570 ft | 14 kts | 357° |
| 2026-04-20 19:50 | -33.38738 | -70.78828 | 1570 ft | 13 kts | 357° |
| 2026-04-20 19:50 | -33.38647 | -70.78834 | 1570 ft | 13 kts | 357° |
| 2026-04-20 19:50 | -33.38557 | -70.78839 | 1570 ft | 13 kts | 357° |
| 2026-04-20 19:50 | -33.38469 | -70.78845 | 1570 ft | 13 kts | 357° |
| 2026-04-20 19:51 | -33.38385 | -70.78861 | 1570 ft | 12 kts | 338° |
| 2026-04-20 19:51 | -33.38312 | -70.78908 | 1570 ft | 12 kts | 321° |
| 2026-04-20 19:51 | -33.38248 | -70.78965 | 1570 ft | 11 kts | 324° |
| 2026-04-20 19:51 | -33.38183 | -70.79020 | 1570 ft | 11 kts | 325° |
| 2026-04-20 19:52 | -33.38120 | -70.79073 | 1570 ft | 11 kts | 325° |
| 2026-04-20 19:52 | -33.38059 | -70.79124 | 1570 ft | 11 kts | 325° |
| 2026-04-20 19:52 | -33.37998 | -70.79175 | 1570 ft | 10 kts | 325° |
| 2026-04-20 19:52 | -33.37939 | -70.79225 | 1570 ft | 10 kts | 324° |
| 2026-04-20 19:53 | -33.37910 | -70.79291 | 1570 ft | 9 kts | 265° |
| 2026-04-20 19:53 | -33.37929 | -70.79360 | 1570 ft | 8 kts | 240° |
| 2026-04-20 19:53 | -33.37950 | -70.79402 | 1570 ft | 4 kts | 238° |
| 2026-04-20 19:53 | -33.37963 | -70.79427 | 1570 ft | 3 kts | 235° |
| 2026-04-20 19:54 | -33.37968 | -70.79435 | 1570 ft | 0 kts | 235° |